Time;durP1;ratioP1;P1;durP2;ratioP2;P2;SDS_P1;SDS_P2;PMS_P1;PMS_P2;Temp;Humidity;BMP_temperature;BMP_pressure;BME280_temperature;BME280_humidity;BME280_pressure;Samples;Min_cycle;Max_cycle;Signal;HPM_P1;HPM_P2
2022/05/26 00:01:11;;;;;;;1.50;1.20;;;22.70;53.40;;;;;;5091833;28;20418;-65
2022/05/26 00:03:41;;;;;;;1.42;1.30;;;22.70;53.40;;;;;;5091865;28;20772;-65
2022/05/26 00:06:09;;;;;;;1.77;1.23;;;22.70;53.40;;;;;;5092258;28;20394;-65
2022/05/26 00:08:39;;;;;;;1.50;1.20;;;22.70;53.40;;;;;;5091981;28;20386;-65
2022/05/26 00:11:07;;;;;;;1.20;1.10;;;22.70;53.30;;;;;;5092403;28;20390;-65
2022/05/26 00:13:35;;;;;;;1.55;1.10;;;22.70;53.30;;;;;;5091469;28;20390;-66
2022/05/26 00:16:01;;;;;;;1.73;1.20;;;22.70;53.30;;;;;;5092030;28;20466;-65
2022/05/26 00:18:26;;;;;;;1.30;1.10;;;22.70;53.30;;;;;;5092056;28;20427;-65
2022/05/26 00:20:52;;;;;;;1.50;1.27;;;22.70;53.30;;;;;;5091778;28;20463;-65
2022/05/26 00:23:18;;;;;;;1.20;0.98;;;22.70;53.30;;;;;;5091510;28;20378;-65
2022/05/26 00:25:44;;;;;;;1.40;1.10;;;22.60;53.20;;;;;;5092023;28;20397;-65
2022/05/26 00:28:10;;;;;;;1.70;1.10;;;22.60;53.20;;;;;;5091925;28;20394;-65
2022/05/26 00:30:37;;;;;;;1.67;1.38;;;22.70;53.20;;;;;;5090495;28;20747;-65
2022/05/26 00:33:05;;;;;;;1.52;1.27;;;22.60;53.20;;;;;;5091662;28;20870;-65
2022/05/26 00:35:34;;;;;;;2.10;1.30;;;22.70;53.20;;;;;;5091160;28;20413;-65
2022/05/26 00:38:04;;;;;;;1.52;1.20;;;22.60;53.10;;;;;;5091603;28;20389;-65
2022/05/26 00:40:30;;;;;;;1.42;1.30;;;22.60;53.10;;;;;;5091536;28;20453;-65
2022/05/26 00:42:57;;;;;;;1.50;1.00;;;22.60;53.10;;;;;;5091605;28;20382;-65
2022/05/26 00:45:23;;;;;;;2.13;1.27;;;22.60;53.10;;;;;;5091083;28;20874;-65
2022/05/26 00:47:49;;;;;;;1.80;1.30;;;22.60;53.00;;;;;;5091803;28;20469;-65
2022/05/26 00:50:23;;;;;;;1.38;1.27;;;22.60;53.20;;;;;;5090042;28;20390;-65
2022/05/26 00:53:12;;;;;;;1.37;1.27;;;22.60;53.10;;;;;;5091797;28;20898;-65
2022/05/26 00:56:08;;;;;;;1.83;1.20;;;22.60;53.10;;;;;;5091353;28;20400;-65
2022/05/26 00:58:37;;;;;;;1.30;1.10;;;22.60;53.10;;;;;;5093050;28;20417;-65
2022/05/26 01:01:04;;;;;;;1.80;1.13;;;22.60;53.10;;;;;;5095515;28;20410;-65
2022/05/26 01:03:41;;;;;;;1.27;1.10;;;22.60;53.20;;;;;;5095056;28;20586;-65
2022/05/26 01:06:13;;;;;;;1.58;1.20;;;22.60;53.10;;;;;;5095445;28;20397;-65
2022/05/26 01:08:51;;;;;;;1.30;1.20;;;22.60;53.10;;;;;;5095449;28;20870;-65
2022/05/26 01:11:17;;;;;;;1.77;1.20;;;22.60;53.10;;;;;;5093867;28;20486;-65
2022/05/26 01:13:49;;;;;;;1.40;1.10;;;22.60;53.10;;;;;;5095046;28;20469;-65
2022/05/26 01:16:38;;;;;;;2.10;1.30;;;22.50;53.00;;;;;;5095093;28;20402;-65
2022/05/26 01:19:10;;;;;;;1.40;1.10;;;22.60;53.00;;;;;;5095211;28;20378;-65
2022/05/26 01:21:46;;;;;;;1.58;1.10;;;22.60;53.10;;;;;;5094161;28;20416;-65
2022/05/26 01:24:30;;;;;;;1.88;1.05;;;22.60;53.00;;;;;;5094782;28;20390;-66
2022/05/26 01:27:10;;;;;;;1.20;1.10;;;22.50;53.00;;;;;;5094966;28;20957;-65
2022/05/26 01:30:05;;;;;;;1.75;1.17;;;22.50;53.00;;;;;;5094678;28;20397;-65
2022/05/26 01:32:55;;;;;;;1.52;1.08;;;22.50;53.00;;;;;;5093667;28;20390;-65
2022/05/26 01:35:35;;;;;;;1.50;1.13;;;22.50;52.90;;;;;;5094660;28;20381;-65
2022/05/26 01:38:19;;;;;;;1.70;1.30;;;22.50;52.90;;;;;;5094842;28;20712;-65
2022/05/26 01:40:52;;;;;;;1.80;1.20;;;22.50;52.90;;;;;;5094818;28;20485;-65
2022/05/26 01:43:44;;;;;;;1.90;1.20;;;22.50;53.00;;;;;;5094357;28;20481;-65
2022/05/26 01:46:32;;;;;;;1.20;1.10;;;22.50;52.90;;;;;;5094314;28;20394;-65
2022/05/26 01:49:14;;;;;;;1.45;1.02;;;22.50;52.90;;;;;;5094674;28;20804;-65
2022/05/26 01:52:09;;;;;;;1.67;1.13;;;22.50;52.90;;;;;;5093642;28;20409;-65
2022/05/26 01:54:43;;;;;;;1.75;1.10;;;22.50;52.90;;;;;;5093449;28;20371;-65
2022/05/26 01:57:28;;;;;;;1.42;1.00;;;22.50;53.00;;;;;;5093310;28;20382;-65
2022/05/26 02:00:01;;;;;;;1.33;1.02;;;22.50;53.00;;;;;;5093242;28;20378;-65
2022/05/26 02:02:34;;;;;;;1.48;1.10;;;22.50;52.90;;;;;;5093020;28;20405;-65
2022/05/26 02:05:28;;;;;;;2.00;1.08;;;22.40;52.90;;;;;;5093191;28;20439;-65
2022/05/26 02:08:06;;;;;;;1.77;1.35;;;22.50;52.90;;;;;;5093184;28;20374;-65
2022/05/26 02:10:41;;;;;;;1.88;1.10;;;22.50;52.90;;;;;;5092602;28;20890;-65
2022/05/26 02:13:11;;;;;;;2.57;1.10;;;22.40;52.80;;;;;;5092908;28;20386;-65
2022/05/26 02:15:42;;;;;;;2.42;1.20;;;22.50;52.90;;;;;;5092633;28;20401;-65
2022/05/26 02:18:17;;;;;;;1.58;1.20;;;22.50;52.80;;;;;;5092833;28;20386;-66
2022/05/26 02:20:52;;;;;;;2.13;1.27;;;22.50;52.80;;;;;;5092725;28;20409;-65
2022/05/26 02:23:27;;;;;;;1.20;1.10;;;22.40;52.80;;;;;;5092617;28;20891;-65
2022/05/26 02:25:54;;;;;;;1.30;1.10;;;22.40;52.80;;;;;;5092886;28;20374;-65
2022/05/26 02:28:20;;;;;;;2.35;1.20;;;22.40;52.80;;;;;;5092573;28;20404;-65
2022/05/26 02:30:48;;;;;;;2.30;1.20;;;22.40;52.80;;;;;;5092737;28;20379;-65
2022/05/26 02:33:15;;;;;;;1.65;1.05;;;22.40;52.90;;;;;;5091401;28;20394;-65
2022/05/26 02:35:48;;;;;;;1.85;1.02;;;22.40;52.80;;;;;;5092043;28;20461;-65
2022/05/26 02:38:17;;;;;;;1.70;1.13;;;22.40;53.00;;;;;;5092527;28;20378;-65
2022/05/26 02:40:43;;;;;;;1.33;1.10;;;22.40;52.80;;;;;;5092559;28;20414;-65
2022/05/26 02:43:16;;;;;;;1.90;1.02;;;22.40;52.80;;;;;;5092510;28;20386;-65
2022/05/26 02:45:53;;;;;;;2.53;1.17;;;22.40;53.40;;;;;;5091913;28;20455;-65
2022/05/26 02:48:37;;;;;;;1.65;1.00;;;22.40;52.80;;;;;;5092422;28;20435;-65
2022/05/26 02:51:12;;;;;;;1.20;1.00;;;22.40;52.80;;;;;;5027637;28;1816858;-65
2022/05/26 02:53:48;;;;;;;2.03;1.40;;;22.40;52.90;;;;;;5091213;28;20394;-65
2022/05/26 02:56:24;;;;;;;1.88;1.10;;;22.40;52.90;;;;;;5093041;28;20889;-65
2022/05/26 02:59:15;;;;;;;1.13;1.00;;;22.40;52.90;;;;;;5093125;28;20394;-65
2022/05/26 03:01:54;;;;;;;1.45;1.10;;;22.40;52.80;;;;;;5092628;28;20425;-65
2022/05/26 03:04:28;;;;;;;2.40;1.20;;;22.40;52.80;;;;;;5093091;28;20731;-65
2022/05/26 03:06:58;;;;;;;1.77;1.10;;;22.40;52.80;;;;;;5093123;28;20394;-65
2022/05/26 03:09:25;;;;;;;1.60;0.95;;;22.40;52.80;;;;;;5092766;28;20423;-65
2022/05/26 03:11:57;;;;;;;1.83;1.10;;;22.40;52.80;;;;;;5092710;28;20382;-65
2022/05/26 03:14:24;;;;;;;2.10;1.20;;;22.40;52.80;;;;;;5092802;28;20381;-65
2022/05/26 03:16:50;;;;;;;1.95;1.02;;;22.40;52.90;;;;;;5092930;28;20783;-65
2022/05/26 03:19:17;;;;;;;1.98;1.08;;;22.30;52.80;;;;;;5093014;28;20469;-65
2022/05/26 03:21:43;;;;;;;1.50;1.10;;;22.40;52.80;;;;;;5091657;28;20412;-65
2022/05/26 03:24:10;;;;;;;2.10;1.20;;;22.30;52.80;;;;;;5092827;28;20907;-65
2022/05/26 03:26:36;;;;;;;1.35;1.02;;;22.40;52.90;;;;;;5092897;28;20382;-65
2022/05/26 03:29:02;;;;;;;1.52;1.20;;;22.30;52.80;;;;;;5092530;28;20386;-65
2022/05/26 03:31:30;;;;;;;1.42;1.02;;;22.30;52.80;;;;;;5092281;28;20381;-65
2022/05/26 03:42:11;;;;;;;2.60;1.23;;;22.40;52.80;;;;;;5092383;28;20770;-65
2022/05/26 03:44:37;;;;;;;1.60;1.00;;;22.30;52.80;;;;;;5092403;28;20374;-65
2022/05/26 03:47:03;;;;;;;1.23;1.10;;;22.40;52.80;;;;;;5092371;28;20746;-65
2022/05/26 03:49:29;;;;;;;1.70;0.90;;;22.40;52.80;;;;;;5092432;28;20370;-65
2022/05/26 03:51:57;;;;;;;1.03;0.93;;;22.30;52.70;;;;;;5090046;28;20467;-65
2022/05/26 03:54:25;;;;;;;2.00;1.15;;;22.40;52.80;;;;;;5090944;28;20480;-65
2022/05/26 03:56:51;;;;;;;1.50;1.10;;;22.40;52.80;;;;;;5092135;28;20382;-65
2022/05/26 03:59:17;;;;;;;1.10;1.00;;;22.40;52.80;;;;;;5092114;28;20474;-65
2022/05/26 04:01:43;;;;;;;1.90;1.17;;;22.30;52.70;;;;;;5091627;28;20857;-65
2022/05/26 04:04:08;;;;;;;1.25;0.90;;;22.40;52.80;;;;;;5092087;28;20461;-65
2022/05/26 04:06:34;;;;;;;1.30;1.00;;;22.40;52.80;;;;;;5091640;28;20750;-65
2022/05/26 04:09:00;;;;;;;3.08;0.90;;;22.30;53.00;;;;;;5091464;28;20866;-65
2022/05/26 04:11:26;;;;;;;1.83;0.90;;;22.30;53.20;;;;;;5091476;28;20414;-65
2022/05/26 04:13:52;;;;;;;3.92;2.45;;;22.40;53.10;;;;;;5091645;28;20389;-65
2022/05/26 04:16:20;;;;;;;8.05;5.05;;;22.30;54.10;;;;;;5091698;28;20385;-65
2022/05/26 04:18:45;;;;;;;4.72;2.50;;;22.30;55.70;;;;;;5091548;28;20389;-66
2022/05/26 04:21:12;;;;;;;2.90;1.60;;;22.30;55.00;;;;;;5091538;28;20406;-65
2022/05/26 04:23:38;;;;;;;2.72;1.30;;;22.40;54.90;;;;;;5091187;28;20389;-65
2022/05/26 04:26:06;;;;;;;3.03;1.40;;;22.40;54.50;;;;;;5091598;28;20386;-65
2022/05/26 04:28:32;;;;;;;2.55;1.60;;;22.40;54.70;;;;;;5090323;28;20418;-65
2022/05/26 04:30:59;;;;;;;2.90;1.43;;;22.40;54.40;;;;;;5091787;28;20495;-65
2022/05/26 04:33:25;;;;;;;4.70;1.50;;;22.40;54.40;;;;;;5097005;28;20469;-65
2022/05/26 04:35:51;;;;;;;2.70;1.48;;;22.40;55.00;;;;;;5091240;28;20783;-65
2022/05/26 04:38:18;;;;;;;4.38;1.60;;;22.40;54.90;;;;;;5091463;28;20396;-65
2022/05/26 04:40:45;;;;;;;2.60;1.50;;;22.50;54.90;;;;;;5091703;28;20420;-66
2022/05/26 04:43:11;;;;;;;2.33;1.17;;;22.50;55.00;;;;;;5091322;28;20386;-65
2022/05/26 04:45:37;;;;;;;2.87;1.20;;;22.50;54.90;;;;;;5091077;28;20386;-65
2022/05/26 04:48:03;;;;;;;3.50;1.60;;;22.40;54.80;;;;;;5091707;28;20469;-65
2022/05/26 04:50:29;;;;;;;3.25;1.38;;;22.50;54.70;;;;;;5091455;28;20946;-64
2022/05/26 04:52:54;;;;;;;4.40;1.52;;;22.40;54.10;;;;;;5103296;28;20626;-64
2022/05/26 04:55:20;;;;;;;5.50;1.57;;;22.40;54.50;;;;;;5110456;28;20487;-64
2022/05/26 04:57:47;;;;;;;7.47;1.90;;;22.50;54.50;;;;;;5111165;28;20447;-64
2022/05/26 05:00:16;;;;;;;8.35;1.60;;;22.50;55.30;;;;;;5111566;28;20396;-63
2022/05/26 05:02:42;;;;;;;16.55;9.40;;;22.50;55.10;;;;;;5110356;28;20399;-63
2022/05/26 05:05:09;;;;;;;10.60;6.65;;;22.50;56.70;;;;;;5111654;28;20459;-63
2022/05/26 05:07:35;;;;;;;7.15;2.63;;;22.50;56.70;;;;;;5111369;28;20387;-64
2022/05/26 05:10:00;;;;;;;4.67;2.40;;;22.50;56.50;;;;;;5111390;28;20467;-63
2022/05/26 05:12:26;;;;;;;9.27;2.40;;;22.50;56.90;;;;;;5111196;28;20475;-63
2022/05/26 05:14:53;;;;;;;5.85;2.20;;;22.50;57.10;;;;;;5091422;28;20382;-63
2022/05/26 05:17:21;;;;;;;5.07;2.13;;;22.50;56.70;;;;;;5091185;28;20424;-63
2022/05/26 05:19:48;;;;;;;4.60;2.10;;;22.50;56.10;;;;;;5090727;28;20382;-65
2022/05/26 05:22:36;;;;;;;4.47;1.80;;;22.50;55.90;;;;;;5090769;28;20536;-65
2022/05/26 05:25:28;;;;;;;3.70;1.58;;;22.50;55.80;;;;;;5090376;28;20389;-65
2022/05/26 05:28:09;;;;;;;4.32;1.60;;;22.40;54.30;;;;;;5078787;28;20474;-66
2022/05/26 05:30:42;;;;;;;3.67;1.70;;;22.40;54.40;;;;;;5072751;28;20454;-66
2022/05/26 05:33:13;;;;;;;2.80;1.25;;;22.40;54.60;;;;;;5066938;28;20507;-66
2022/05/26 05:35:46;;;;;;;3.13;1.52;;;22.40;54.50;;;;;;5068433;28;20397;-66
2022/05/26 05:38:13;;;;;;;2.35;1.30;;;22.30;53.40;;;;;;5071598;28;20399;-66
2022/05/26 05:40:38;;;;;;;2.83;1.40;;;22.40;54.10;;;;;;5067124;28;21025;-66
2022/05/26 05:43:04;;;;;;;3.83;1.70;;;22.40;53.60;;;;;;5073957;28;20434;-66
2022/05/26 05:45:30;;;;;;;3.70;1.40;;;22.30;54.10;;;;;;5074790;28;20387;-66
2022/05/26 05:47:56;;;;;;;4.40;1.40;;;22.30;54.10;;;;;;5070002;28;20894;-66
2022/05/26 05:50:22;;;;;;;6.73;1.67;;;22.40;54.10;;;;;;5065824;28;20400;-66
2022/05/26 05:52:47;;;;;;;3.97;1.38;;;22.40;54.10;;;;;;5074445;28;20415;-65
2022/05/26 05:55:13;;;;;;;5.93;1.63;;;22.30;53.80;;;;;;5067864;28;20391;-65
2022/05/26 05:57:38;;;;;;;3.42;1.23;;;22.30;53.70;;;;;;5064711;28;20395;-65
2022/05/26 06:00:06;;;;;;;3.90;1.47;;;22.30;53.80;;;;;;5073867;28;20397;-66
2022/05/26 06:02:32;;;;;;;3.93;1.30;;;22.40;53.50;;;;;;5074075;28;20458;-65
2022/05/26 06:04:57;;;;;;;5.95;1.40;;;22.30;53.80;;;;;;5071303;28;20390;-65
2022/05/26 06:07:23;;;;;;;4.25;1.40;;;22.30;53.30;;;;;;5069588;28;20402;-65
2022/05/26 06:09:50;;;;;;;4.20;1.52;;;22.30;53.00;;;;;;5074267;28;20400;-65
2022/05/26 06:12:16;;;;;;;3.88;1.50;;;22.30;53.10;;;;;;5072292;28;20522;-65
2022/05/26 06:14:42;;;;;;;5.55;1.60;;;22.30;53.70;;;;;;5073152;28;20736;-65
2022/05/26 06:17:09;;;;;;;3.55;1.60;;;22.30;53.20;;;;;;5071719;28;20396;-65
2022/05/26 06:19:36;;;;;;;3.28;1.35;;;22.30;53.60;;;;;;5069331;28;20839;-65
2022/05/26 06:22:10;;;;;;;2.35;1.30;;;22.30;53.70;;;;;;5069513;28;20447;-65
2022/05/26 06:24:39;;;;;;;3.20;1.52;;;22.30;53.80;;;;;;5069189;28;20441;-65
2022/05/26 06:29:49;;;;;;;4.32;1.52;;;22.30;53.80;;;;;;5073621;28;20480;-65
2022/05/26 06:29:55;;;;;;;2.10;1.58;;;22.30;53.60;;;;;;5067468;28;20377;-65
2022/05/26 06:37:51;;;;;;;4.10;1.38;;;22.30;53.10;;;;;;5072610;28;20494;-65
2022/05/26 06:40:16;;;;;;;4.00;1.33;;;22.30;53.00;;;;;;5079497;28;20408;-65
2022/05/26 06:42:45;;;;;;;4.47;1.40;;;22.30;53.10;;;;;;5070832;28;20872;-65
2022/05/26 06:45:11;;;;;;;5.03;1.60;;;22.40;53.10;;;;;;5078489;28;20384;-66
2022/05/26 06:47:37;;;;;;;3.08;1.20;;;22.30;53.20;;;;;;5069170;28;20791;-65
2022/05/26 06:50:03;;;;;;;4.63;1.30;;;22.30;53.00;;;;;;5077436;28;20394;-65
2022/05/26 06:52:29;;;;;;;2.93;1.30;;;22.30;53.00;;;;;;5066125;28;20415;-65
2022/05/26 06:54:56;;;;;;;3.38;1.50;;;22.40;53.10;;;;;;5069740;28;20391;-65
2022/05/26 06:57:22;;;;;;;4.18;1.48;;;22.30;53.10;;;;;;5063783;28;20430;-65
2022/05/26 06:59:47;;;;;;;2.73;1.30;;;22.30;53.20;;;;;;5074930;28;20421;-65
2022/05/26 07:02:14;;;;;;;2.83;1.30;;;22.30;53.50;;;;;;5079571;28;20425;-65
2022/05/26 07:04:40;;;;;;;2.53;1.25;;;22.30;53.60;;;;;;5072213;28;20391;-65
2022/05/26 07:07:06;;;;;;;3.63;1.40;;;22.40;53.30;;;;;;5074267;28;20478;-66
2022/05/26 07:09:33;;;;;;;2.28;1.42;;;22.40;53.80;;;;;;5068725;28;20394;-65
2022/05/26 07:11:58;;;;;;;2.72;1.17;;;22.40;53.80;;;;;;5069645;28;20461;-65
2022/05/26 07:14:25;;;;;;;3.33;1.40;;;22.40;53.80;;;;;;5068803;28;20388;-65
2022/05/26 07:16:50;;;;;;;2.63;1.48;;;22.40;53.70;;;;;;5065783;28;20910;-65
2022/05/26 07:19:18;;;;;;;2.37;1.33;;;22.40;53.80;;;;;;5070864;28;20388;-65
2022/05/26 07:21:48;;;;;;;2.20;1.20;;;22.40;53.80;;;;;;5062812;28;20458;-65
2022/05/26 07:24:23;;;;;;;1.65;1.20;;;22.40;53.80;;;;;;5077215;28;20391;-65
2022/05/26 07:26:49;;;;;;;2.83;1.30;;;22.50;53.90;;;;;;5070866;28;20395;-65
2022/05/26 07:29:16;;;;;;;2.38;1.50;;;22.40;53.40;;;;;;5066699;28;20388;-65
2022/05/26 07:31:42;;;;;;;1.75;1.30;;;22.40;53.70;;;;;;5073421;28;20394;-65
2022/05/26 07:34:08;;;;;;;1.90;1.20;;;22.40;53.70;;;;;;5067941;28;20438;-65
2022/05/26 07:42:07;;;;;;;1.95;1.25;;;22.40;53.20;;;;;;5076236;28;20987;-66
2022/05/26 07:44:36;;;;;;;1.80;1.20;;;22.40;53.30;;;;;;5071007;28;20869;-65
2022/05/26 07:47:06;;;;;;;1.60;1.10;;;22.40;53.30;;;;;;5067279;28;20445;-65
2022/05/26 07:49:40;;;;;;;1.50;1.10;;;22.40;53.40;;;;;;5075577;28;20416;-65
2022/05/26 07:52:06;;;;;;;1.55;1.10;;;22.40;53.30;;;;;;5075016;28;20461;-66
2022/05/26 07:54:32;;;;;;;1.60;1.17;;;22.40;53.30;;;;;;5078415;28;20378;-65
2022/05/26 07:56:59;;;;;;;2.57;1.27;;;22.40;53.40;;;;;;5068587;28;20397;-65
2022/05/26 07:59:25;;;;;;;1.63;1.10;;;22.40;53.40;;;;;;5075321;28;20382;-65
2022/05/26 08:01:50;;;;;;;1.60;0.95;;;22.40;53.40;;;;;;5065719;28;20423;-65
2022/05/26 08:04:17;;;;;;;1.73;1.00;;;22.40;53.50;;;;;;5067068;28;20383;-65
2022/05/26 08:06:47;;;;;;;1.30;0.90;;;22.40;53.40;;;;;;5069680;28;20396;-65
2022/05/26 08:09:22;;;;;;;1.58;1.10;;;22.40;53.40;;;;;;5072019;28;20387;-65
2022/05/26 08:11:48;;;;;;;1.40;1.20;;;22.50;53.40;;;;;;5066541;28;20412;-65
2022/05/26 08:14:14;;;;;;;1.40;1.25;;;22.50;53.40;;;;;;5072319;28;20392;-65
2022/05/26 08:16:40;;;;;;;1.45;1.08;;;22.50;53.40;;;;;;5063539;28;20896;-65
2022/05/26 08:19:06;;;;;;;1.55;1.15;;;22.50;53.30;;;;;;5072891;28;20398;-65
2022/05/26 08:21:32;;;;;;;1.50;1.23;;;22.50;53.30;;;;;;5068079;28;21074;-66
2022/05/26 08:24:00;;;;;;;1.40;1.20;;;22.50;53.30;;;;;;5065865;28;20372;-65
2022/05/26 08:26:26;;;;;;;1.60;1.00;;;22.50;53.30;;;;;;5073360;28;20399;-65
2022/05/26 08:28:52;;;;;;;1.53;1.00;;;22.50;53.30;;;;;;5075069;28;20531;-65
2022/05/26 08:31:18;;;;;;;1.30;0.90;;;22.50;53.30;;;;;;5064351;28;20391;-65
2022/05/26 08:33:43;;;;;;;1.38;1.10;;;22.50;53.30;;;;;;5074741;28;20722;-65
2022/05/26 08:36:13;;;;;;;1.20;1.10;;;22.50;53.30;;;;;;5068363;28;20907;-65
2022/05/26 08:38:39;;;;;;;1.55;1.02;;;22.50;53.30;;;;;;5069882;28;20362;-65
2022/05/26 08:41:07;;;;;;;1.20;1.10;;;22.50;53.30;;;;;;5068475;28;20659;-66
2022/05/26 08:43:38;;;;;;;1.15;1.05;;;22.50;53.40;;;;;;5073388;28;20432;-65
2022/05/26 08:46:08;;;;;;;1.10;1.00;;;22.50;53.50;;;;;;5072792;28;20774;-65
2022/05/26 08:48:56;;;;;;;1.20;0.93;;;22.50;53.40;;;;;;5074017;28;20382;-65
2022/05/26 08:51:31;;;;;;;1.50;1.10;;;22.50;53.50;;;;;;5071899;28;20407;-65
2022/05/26 08:53:59;;;;;;;1.27;1.17;;;22.50;53.50;;;;;;5068339;28;20389;-65
2022/05/26 08:56:28;;;;;;;1.40;1.00;;;22.50;53.40;;;;;;5065563;28;20400;-65
2022/05/26 08:59:02;;;;;;;1.15;1.05;;;22.50;53.50;;;;;;5074773;28;20479;-65
2022/05/26 09:01:32;;;;;;;1.40;1.10;;;22.50;53.50;;;;;;5074170;28;20421;-65
2022/05/26 09:03:58;;;;;;;1.30;1.10;;;22.50;53.50;;;;;;5077369;28;20844;-65
2022/05/26 09:06:25;;;;;;;1.67;1.30;;;22.50;53.50;;;;;;5068050;28;20396;-65
2022/05/26 09:14:24;;;;;;;1.33;1.13;;;22.50;53.50;;;;;;5068628;28;20399;-65
2022/05/26 09:17:00;;;;;;;1.90;1.30;;;22.50;53.50;;;;;;5070595;28;20402;-65
2022/05/26 09:19:31;;;;;;;1.80;1.10;;;22.50;53.50;;;;;;5070109;28;20383;-65
2022/05/26 09:21:57;;;;;;;1.40;1.20;;;22.50;53.50;;;;;;5071290;28;20419;-65
2022/05/26 09:24:39;;;;;;;1.10;1.00;;;22.50;53.50;;;;;;5076871;28;20918;-65
2022/05/26 09:27:26;;;;;;;1.27;1.17;;;22.50;53.50;;;;;;5079453;28;20399;-65
2022/05/26 09:29:53;;;;;;;1.65;1.23;;;22.50;53.50;;;;;;5078358;28;20379;-65
2022/05/26 09:32:19;;;;;;;1.52;1.35;;;22.50;53.50;;;;;;5066621;28;20386;-65
2022/05/26 09:35:04;;;;;;;1.30;1.00;;;22.50;53.50;;;;;;5073001;28;20891;-66
2022/05/26 09:37:50;;;;;;;1.30;1.10;;;22.50;53.50;;;;;;5067547;28;20749;-66
2022/05/26 09:40:33;;;;;;;1.38;1.27;;;22.50;53.50;;;;;;5069654;28;20748;-65
2022/05/26 09:43:06;;;;;;;1.33;1.20;;;22.50;53.50;;;;;;5067199;28;20839;-66
2022/05/26 09:45:44;;;;;;;1.35;1.00;;;22.50;53.50;;;;;;5104711;27;20434;-65
2022/05/26 09:48:24;;;;;;;1.47;1.20;;;22.60;53.50;;;;;;5065209;28;20472;-65
2022/05/26 09:51:22;;;;;;;1.20;1.10;;;22.60;53.50;;;;;;5076458;28;20457;-66
2022/05/26 09:53:51;;;;;;;1.30;1.20;;;22.60;53.50;;;;;;5070094;28;20432;-66
2022/05/26 09:56:41;;;;;;;1.20;1.00;;;22.60;53.50;;;;;;5068762;28;20390;-66
2022/05/26 09:59:25;;;;;;;1.40;1.30;;;22.60;53.50;;;;;;5073691;28;20386;-65
2022/05/26 10:02:02;;;;;;;2.40;1.35;;;22.60;53.60;;;;;;5069496;28;20423;-66
2022/05/26 10:04:39;;;;;;;3.80;1.10;;;22.60;53.70;;;;;;5068773;28;20372;-65
2022/05/26 10:07:13;;;;;;;1.30;1.00;;;22.60;53.60;;;;;;5066436;28;20419;-65
2022/05/26 10:09:49;;;;;;;2.30;1.15;;;22.60;53.50;;;;;;5072138;28;20495;-66
2022/05/26 10:12:29;;;;;;;3.22;1.10;;;22.60;53.60;;;;;;5067096;28;20737;-66
2022/05/26 10:15:28;;;;;;;1.98;0.90;;;22.60;53.60;;;;;;5067236;28;20403;-65
2022/05/26 10:18:21;;;;;;;1.73;1.10;;;22.60;53.60;;;;;;5082304;28;20429;-65
2022/05/26 10:21:10;;;;;;;2.83;1.20;;;22.60;53.70;;;;;;5068716;28;20410;-66
2022/05/26 10:24:12;;;;;;;1.63;1.10;;;22.60;53.60;;;;;;5060196;28;20405;-66
2022/05/26 10:26:48;;;;;;;1.98;1.10;;;22.60;53.60;;;;;;5071320;28;20481;-66
2022/05/26 10:29:39;;;;;;;1.58;1.08;;;22.60;53.70;;;;;;5069877;28;20493;-65
2022/05/26 10:32:41;;;;;;;1.35;1.10;;;22.60;53.70;;;;;;5070771;28;20418;-65
2022/05/26 10:36:11;;;;;;;1.83;1.10;;;22.60;53.60;;;;;;5067204;28;20379;-66
2022/05/26 10:38:51;;;;;;;1.40;1.10;;;22.60;53.70;;;;;;4968156;28;20446;-65
2022/05/26 10:41:38;;;;;;;1.20;1.10;;;22.60;53.70;;;;;;5060162;28;20420;-65
2022/05/26 10:44:07;;;;;;;1.40;1.20;;;22.60;53.60;;;;;;5069631;28;20753;-66
2022/05/26 10:46:37;;;;;;;1.50;1.10;;;22.60;53.60;;;;;;5068011;28;20395;-65
2022/05/26 10:49:05;;;;;;;1.37;1.17;;;22.60;53.60;;;;;;5066969;28;20922;-66
2022/05/26 10:51:42;;;;;;;2.03;1.20;;;22.60;53.60;;;;;;5071849;28;20982;-65
2022/05/26 10:54:25;;;;;;;1.53;1.10;;;22.60;53.60;;;;;;5066485;28;20376;-65
2022/05/26 10:57:18;;;;;;;1.30;1.20;;;22.60;53.50;;;;;;5067562;28;20398;-65
2022/05/26 10:59:57;;;;;;;1.20;1.10;;;22.60;53.50;;;;;;5079953;28;20378;-65
2022/05/26 11:02:45;;;;;;;1.30;1.05;;;22.60;53.50;;;;;;5068907;28;20943;-65
2022/05/26 11:05:22;;;;;;;1.15;1.05;;;22.60;53.50;;;;;;5066184;28;20388;-65
2022/05/26 11:07:55;;;;;;;1.20;1.10;;;22.60;53.50;;;;;;5068278;28;20410;-65
2022/05/26 11:10:29;;;;;;;1.25;1.10;;;22.60;53.50;;;;;;5066703;28;20388;-65
2022/05/26 11:13:05;;;;;;;1.20;1.10;;;22.60;53.50;;;;;;5068714;28;20966;-65
2022/05/26 11:18:53;;;;;;;1.40;1.10;;;22.60;53.50;;;;;;5070582;28;20574;-65
2022/05/26 11:21:21;;;;;;;1.42;1.23;;;22.60;53.50;;;;;;5064008;28;20431;-65
2022/05/26 11:23:48;;;;;;;1.33;1.02;;;22.60;53.40;;;;;;5074650;28;20394;-65
2022/05/26 11:26:42;;;;;;;1.35;1.10;;;22.60;53.40;;;;;;5065779;28;20836;-66
2022/05/26 11:29:36;;;;;;;1.63;1.20;;;22.60;53.40;;;;;;5067463;28;20431;-65
2022/05/26 11:38:26;;;;;;;1.30;1.05;;;22.60;53.40;;;;;;5072277;28;20467;-65
2022/05/26 11:40:58;;;;;;;1.20;0.90;;;22.60;53.50;;;;;;5073876;28;20420;-65
2022/05/26 11:43:33;;;;;;;1.20;1.10;;;22.60;53.50;;;;;;5068430;28;21311;-65
2022/05/26 11:45:59;;;;;;;1.48;1.10;;;22.60;53.50;;;;;;5072593;28;20406;-65
2022/05/26 11:48:31;;;;;;;1.38;1.13;;;22.60;53.40;;;;;;5062828;28;20411;-65
2022/05/26 11:51:04;;;;;;;1.50;1.30;;;22.60;53.40;;;;;;5068688;28;20871;-65
2022/05/26 11:53:44;;;;;;;1.30;1.00;;;22.60;53.40;;;;;;5063474;28;20408;-64
2022/05/26 11:56:29;;;;;;;6.75;1.30;;;22.60;53.50;;;;;;5069156;28;20396;-65
2022/05/26 11:59:23;;;;;;;4.65;1.40;;;22.60;53.40;;;;;;5067703;28;20423;-65
2022/05/26 12:02:14;;;;;;;5.03;1.48;;;22.70;53.30;;;;;;5066887;28;20415;-66
2022/05/26 12:04:42;;;;;;;2.88;1.50;;;22.60;53.20;;;;;;5064860;28;20399;-65
2022/05/26 12:07:14;;;;;;;3.75;1.42;;;22.70;53.90;;;;;;5071795;28;20426;-65
2022/05/26 12:09:48;;;;;;;3.60;1.48;;;22.70;53.80;;;;;;5063274;28;20391;-65
2022/05/26 12:12:17;;;;;;;2.22;1.48;;;22.80;53.80;;;;;;5065723;28;20396;-65
2022/05/26 12:14:55;;;;;;;3.90;1.55;;;22.90;54.00;;;;;;5066737;28;20910;-65
2022/05/26 12:17:44;;;;;;;3.17;1.70;;;23.00;53.40;;;;;;5064408;28;20821;-66
2022/05/26 12:20:10;;;;;;;3.13;1.65;;;23.10;53.10;;;;;;5064836;28;20855;-66
2022/05/26 12:22:50;;;;;;;3.57;1.77;;;23.20;53.00;;;;;;5065873;28;20937;-65
2022/05/26 12:25:22;;;;;;;2.63;1.50;;;23.20;53.00;;;;;;5065140;28;20386;-65
2022/05/26 12:28:02;;;;;;;2.85;1.88;;;23.30;53.00;;;;;;5071586;28;20462;-65
2022/05/26 12:30:36;;;;;;;2.58;1.70;;;23.30;52.70;;;;;;5069336;28;20807;-65
2022/05/26 12:33:15;;;;;;;3.47;1.92;;;23.30;52.60;;;;;;5070069;28;20380;-65
2022/05/26 12:35:47;;;;;;;2.80;2.00;;;23.40;52.80;;;;;;5068889;28;20890;-65
2022/05/26 12:38:23;;;;;;;2.58;2.10;;;23.40;52.60;;;;;;5071902;28;20748;-65
2022/05/26 12:41:06;;;;;;;3.17;2.20;;;23.50;52.70;;;;;;5069964;28;20411;-65
2022/05/26 12:43:52;;;;;;;2.50;2.00;;;23.50;52.70;;;;;;5071100;28;20479;-65
2022/05/26 12:46:40;;;;;;;2.38;2.17;;;23.50;52.60;;;;;;5068372;28;20427;-65
2022/05/26 12:49:26;;;;;;;3.22;2.50;;;23.60;52.70;;;;;;5068145;28;20467;-65
2022/05/26 12:52:24;;;;;;;3.17;2.30;;;23.60;52.60;;;;;;5069296;28;20400;-65
2022/05/26 12:55:12;;;;;;;3.50;3.20;;;23.70;52.60;;;;;;5055571;28;20422;-65
2022/05/26 12:57:42;;;;;;;4.38;2.70;;;23.70;53.30;;;;;;5070492;28;20383;-65
2022/05/26 13:00:36;;;;;;;2.95;2.65;;;23.80;52.90;;;;;;5065428;28;20398;-66
2022/05/26 13:03:09;;;;;;;4.35;2.50;;;23.80;52.30;;;;;;5071887;28;20398;-65
2022/05/26 13:05:39;;;;;;;4.60;2.20;;;23.80;53.10;;;;;;5071386;28;20579;-65
2022/05/26 13:08:10;;;;;;;3.58;2.60;;;23.90;53.10;;;;;;5075353;28;20390;-65
2022/05/26 13:10:38;;;;;;;2.83;2.58;;;24.00;53.50;;;;;;5076475;28;21054;-65
2022/05/26 13:13:20;;;;;;;2.83;2.25;;;24.00;52.90;;;;;;5079642;28;20396;-65
2022/05/26 13:15:46;;;;;;;2.38;1.85;;;23.90;52.60;;;;;;5068340;28;20923;-66
2022/05/26 13:18:24;;;;;;;2.70;1.90;;;23.90;52.40;;;;;;5074488;28;21014;-66
2022/05/26 13:20:50;;;;;;;3.25;2.00;;;23.80;52.40;;;;;;5066163;28;20840;-65
2022/05/26 13:23:30;;;;;;;2.97;1.90;;;23.80;52.50;;;;;;5066494;28;20756;-65
2022/05/26 13:25:59;;;;;;;2.40;2.05;;;23.70;52.50;;;;;;5067734;28;20486;-65
2022/05/26 13:28:33;;;;;;;3.50;2.40;;;23.70;52.50;;;;;;5068837;28;20387;-65
2022/05/26 13:33:48;;;;;;;3.05;2.00;;;23.70;52.70;;;;;;5071922;28;20441;-65
2022/05/26 13:36:19;;;;;;;5.28;2.00;;;23.70;52.80;;;;;;5070806;28;20387;-66
2022/05/26 13:38:48;;;;;;;2.90;1.90;;;23.70;53.30;;;;;;5072346;28;20405;-66
2022/05/26 13:41:33;;;;;;;2.50;1.80;;;23.80;52.80;;;;;;5070088;28;20510;-66
2022/05/26 13:44:05;;;;;;;2.58;1.65;;;23.90;52.30;;;;;;5100100;27;20407;-66
2022/05/26 13:46:45;;;;;;;2.58;1.80;;;23.90;52.20;;;;;;5069938;28;21181;-66
2022/05/26 13:49:33;;;;;;;3.20;1.70;;;23.90;52.00;;;;;;5070432;28;20399;-67
2022/05/26 13:52:08;;;;;;;3.25;1.80;;;23.90;52.00;;;;;;5074554;28;21076;-66